首页
METAR-TAF:

METAR-TAF

机场 :

雪城汉考克国际机场

锡拉丘兹, 紐約州, 美国

纬度: 43-06-33N, 经度: 076-06-12W, 海拔: 128米

当前天气观测

该预报发布于38分钟前的06:54 UTC
静风
温度 18°C
湿度 94%
气压 1011 hPa
能見度: 16.1公里
少量云层高于3000英尺
多云层高于7000英尺
阴天层高于14000英尺

METAR: KSYR 230654Z 00000KT 10SM FEW030 BKN070 OVC140 18/17 A2986 RMK AO2 SLP105 T01830172 $

时间: 03:32 (07:32 UTC)

预报

该预报发布于1小时和43分钟前的05:49 UTC
预报有效从23日的 06点(UTC)到 24日的 06点(UTC)
风速4节,风向北转西北
能見度: 10公里
少量云层高于500英尺
多云层高于2500英尺
从 23日的 0900点(UTC)
风速4节,风向西北
能見度: 10公里
多云层高于4000英尺
从 23日的 1400点(UTC)
风速7节,风向西北
能見度: 10公里
散云层高于5000英尺
从 24日的 0000点(UTC)
风速3节,风向多变
能見度: 10公里
散云层高于25000英尺

TAF: KSYR 230549Z 2306/2406 34004KT P6SM FEW005 BKN025 FM230900 31004KT P6SM BKN040 FM231400 31007KT P6SM SCT050 FM240000 VRB03KT P6SM SCT250

超过4000个机场的气象观测和天气预报(METAR&TAF报告)。

可查询的气象台以黄色和红色小点在地图上表示。

将鼠标移到小点上方,可查看气象台名称。

然后点击查看天气观测和预报。

如需切换地图:点击带黑十字的绿色按钮放大地图;点击带横线的绿色按钮缩小地图;或者点击绿色箭头查看邻近地区的地图。


METAR-TAF: